createdAt,value
2023-01-15T00:01:22.134Z,3.54
2023-01-15T00:04:25.622Z,3.56
2023-01-15T00:07:30.395Z,3.61
2023-01-15T00:10:34.979Z,3.70
2023-01-15T00:13:37.812Z,3.74
2023-01-15T00:16:41.054Z,3.68
2023-01-15T00:19:43.944Z,3.69
2023-01-15T00:22:47.129Z,3.75
2023-01-15T00:26:09.037Z,3.91
2023-01-15T00:29:13.259Z,3.79
2023-01-15T00:32:16.192Z,3.90
2023-01-15T00:35:21.959Z,3.84
2023-01-15T00:38:25.405Z,3.93
2023-01-15T00:41:28.591Z,3.96
2023-01-15T00:44:33.629Z,3.88
2023-01-15T00:47:40.705Z,3.90
2023-01-15T00:50:43.637Z,3.95
2023-01-15T00:53:46.882Z,3.96
2023-01-15T00:56:49.786Z,3.94
2023-01-15T00:59:53.686Z,3.92
2023-01-15T01:02:57.315Z,3.94
2023-01-15T01:06:02.194Z,3.89
2023-01-15T01:09:05.275Z,3.84
2023-01-15T01:12:08.638Z,3.88
2023-01-15T01:15:11.718Z,3.86
2023-01-15T01:18:14.965Z,3.81
2023-01-15T01:21:18.476Z,3.84
2023-01-15T01:24:23.499Z,3.90
2023-01-15T01:27:26.421Z,3.86
2023-01-15T01:30:30.600Z,3.79
2023-01-15T01:33:33.660Z,3.73
2023-01-15T01:36:38.836Z,3.74
2023-01-15T01:39:41.778Z,3.71
2023-01-15T01:42:45.633Z,3.73
2023-01-15T01:45:48.687Z,3.70
2023-01-15T01:48:54.627Z,3.68
2023-01-15T01:52:10.454Z,3.73
2023-01-15T01:55:17.431Z,3.70
2023-01-15T01:58:22.231Z,3.66
2023-01-15T02:01:27.268Z,3.54
2023-01-15T02:04:33.115Z,3.54
2023-01-15T02:07:36.150Z,3.66
2023-01-15T02:10:39.513Z,3.63
2023-01-15T02:13:59.008Z,3.60
2023-01-15T02:17:14.406Z,3.62
2023-01-15T02:20:31.902Z,3.62
2023-01-15T02:24:13.636Z,3.53
2023-01-15T02:27:20.932Z,3.55
2023-01-15T02:30:29.345Z,3.64
2023-01-15T02:33:39.025Z,3.60
2023-01-15T02:36:47.167Z,3.55
2023-01-15T02:39:52.593Z,3.63
2023-01-15T02:42:57.030Z,3.55
2023-01-15T02:46:01.330Z,3.60
2023-01-15T02:49:07.709Z,3.66
2023-01-15T02:52:17.227Z,3.64
2023-01-15T02:55:30.518Z,3.72
2023-01-15T02:58:36.033Z,3.74
2023-01-15T03:01:56.970Z,3.63
2023-01-15T03:05:10.059Z,3.36
2023-01-15T03:08:14.056Z,3.28
2023-01-15T03:11:19.221Z,3.17
2023-01-15T03:14:32.313Z,2.74
2023-01-15T03:17:39.833Z,2.79
2023-01-15T03:20:48.792Z,2.67
2023-01-15T03:23:54.884Z,2.65
2023-01-15T03:27:01.561Z,2.59
2023-01-15T03:30:14.155Z,2.43
2023-01-15T03:33:18.989Z,2.65
2023-01-15T03:36:23.251Z,2.82
2023-01-15T03:39:26.658Z,3.20
2023-01-15T03:42:31.035Z,3.37
2023-01-15T03:45:35.150Z,3.43
2023-01-15T03:48:56.393Z,3.25
2023-01-15T03:52:04.368Z,3.18
2023-01-15T03:55:23.237Z,3.21
2023-01-15T03:58:30.901Z,3.38
2023-01-15T04:01:39.429Z,3.50
2023-01-15T04:04:45.017Z,3.54
2023-01-15T04:07:50.663Z,3.71
2023-01-15T04:11:01.779Z,3.77
2023-01-15T04:14:05.788Z,3.92
2023-01-15T04:17:10.443Z,3.90
2023-01-15T04:20:13.872Z,4.03
2023-01-15T04:23:18.822Z,4.13
2023-01-15T04:26:21.866Z,4.23
2023-01-15T04:29:26.484Z,4.29
2023-01-15T04:32:29.465Z,4.19
2023-01-15T04:35:32.782Z,4.17
2023-01-15T04:38:38.362Z,4.26
2023-01-15T04:42:00.216Z,4.28
2023-01-15T04:45:03.435Z,4.26
2023-01-15T04:48:06.904Z,4.28
2023-01-15T04:51:09.798Z,4.34
2023-01-15T04:54:15.192Z,4.28
2023-01-15T04:57:18.063Z,4.27
2023-01-15T05:00:23.368Z,4.32
2023-01-15T05:03:28.867Z,4.13
2023-01-15T05:06:33.216Z,4.18
2023-01-15T05:09:36.737Z,4.27
2023-01-15T05:12:40.033Z,4.14
2023-01-15T05:15:43.046Z,4.24
2023-01-15T05:18:47.199Z,4.32
2023-01-15T05:21:51.591Z,4.34
2023-01-15T05:24:54.760Z,4.41
2023-01-15T05:27:57.678Z,4.35
2023-01-15T05:31:08.019Z,4.36
2023-01-15T05:34:11.275Z,4.25
2023-01-15T05:37:14.581Z,4.26
2023-01-15T05:40:18.080Z,4.16
2023-01-15T05:43:21.258Z,4.16
2023-01-15T05:46:24.286Z,4.20
2023-01-15T05:49:28.542Z,4.17
2023-01-15T05:52:31.403Z,4.13
2023-01-15T05:55:34.783Z,4.17
2023-01-15T05:58:38.121Z,4.15
2023-01-15T06:01:41.935Z,4.16
2023-01-15T06:04:45.243Z,4.19
2023-01-15T06:07:50.296Z,4.22
2023-01-15T06:10:53.534Z,4.18
2023-01-15T06:13:57.021Z,4.03
2023-01-15T06:17:00.485Z,4.13
2023-01-15T06:20:04.591Z,4.21
2023-01-15T06:23:08.799Z,4.12
2023-01-15T06:26:14.832Z,4.09
2023-01-15T06:29:20.639Z,3.98
2023-01-15T06:32:23.679Z,4.01
2023-01-15T06:35:27.421Z,4.13
2023-01-15T06:38:30.486Z,4.07
2023-01-15T06:41:52.351Z,4.09
2023-01-15T06:45:21.577Z,4.00
2023-01-15T06:48:25.991Z,4.05
2023-01-15T06:51:31.046Z,4.06
2023-01-15T06:54:34.705Z,3.92
2023-01-15T06:57:41.295Z,3.96
2023-01-15T07:00:45.603Z,3.99
2023-01-15T07:03:48.598Z,3.99
2023-01-15T07:06:51.963Z,4.02
2023-01-15T07:09:54.968Z,4.03
2023-01-15T07:12:58.202Z,4.05
2023-01-15T07:16:02.324Z,4.16
2023-01-15T07:19:05.925Z,4.18
2023-01-15T07:22:10.146Z,4.24
2023-01-15T07:25:13.422Z,4.27
2023-01-15T07:28:17.146Z,4.42
2023-01-15T07:31:20.483Z,4.38
2023-01-15T07:34:23.866Z,4.46
2023-01-15T07:37:28.617Z,4.36
2023-01-15T07:40:31.818Z,4.35
2023-01-15T07:43:54.993Z,4.50
2023-01-15T07:47:16.928Z,4.57
2023-01-15T07:50:22.775Z,4.52
2023-01-15T07:53:25.657Z,4.59
2023-01-15T07:56:28.835Z,4.77
2023-01-15T07:59:31.805Z,4.91
2023-01-15T08:02:34.969Z,4.73
2023-01-15T08:05:38.148Z,5.01
2023-01-15T08:08:41.119Z,4.95
2023-01-15T08:12:02.773Z,5.19
2023-01-15T08:15:15.533Z,5.11
2023-01-15T08:18:18.827Z,5.17
2023-01-15T08:21:23.194Z,5.26
2023-01-15T08:24:27.100Z,5.37
2023-01-15T08:27:32.659Z,5.36
2023-01-15T08:30:36.687Z,5.39
2023-01-15T08:33:39.645Z,5.48
2023-01-15T08:36:42.960Z,5.42
2023-01-15T08:39:46.259Z,5.42
2023-01-15T08:42:49.491Z,5.67
2023-01-15T08:45:52.988Z,5.37
2023-01-15T08:48:56.308Z,5.43
2023-01-15T08:51:59.192Z,5.10
2023-01-15T08:55:02.545Z,5.17
2023-01-15T08:58:05.268Z,5.13
2023-01-15T09:01:10.011Z,5.26
2023-01-15T09:04:15.450Z,5.20
2023-01-15T09:07:18.476Z,5.22
2023-01-15T09:10:22.520Z,4.96
2023-01-15T09:13:28.140Z,5.12
2023-01-15T09:16:32.225Z,5.16
2023-01-15T09:19:35.522Z,5.22
2023-01-15T09:22:38.597Z,5.28
2023-01-15T09:26:01.193Z,5.42
2023-01-15T09:29:04.899Z,5.37
2023-01-15T09:32:10.035Z,5.39
2023-01-15T09:35:13.268Z,5.36
2023-01-15T09:38:17.852Z,5.47
2023-01-15T09:41:40.788Z,5.55
2023-01-15T09:45:10.191Z,5.73
2023-01-15T09:48:25.305Z,5.72
2023-01-15T09:51:58.106Z,5.84
2023-01-15T09:55:15.176Z,5.91
2023-01-15T09:58:21.676Z,6.05
2023-01-15T10:01:33.476Z,6.04
2023-01-15T10:04:49.905Z,6.13
2023-01-15T10:08:05.207Z,5.99
2023-01-15T10:11:15.800Z,6.17
2023-01-15T10:14:31.837Z,6.07
2023-01-15T10:17:49.403Z,6.41
2023-01-15T10:21:11.079Z,6.29
2023-01-15T10:24:39.866Z,6.28
2023-01-15T10:27:46.655Z,6.28
2023-01-15T10:30:54.217Z,6.23
2023-01-15T10:34:06.221Z,6.52
2023-01-15T10:37:14.235Z,6.64
2023-01-15T10:40:35.254Z,6.62
2023-01-15T10:43:47.085Z,7.04
2023-01-15T10:47:00.096Z,7.07
2023-01-15T10:50:13.705Z,7.09
2023-01-15T10:53:22.878Z,7.30
2023-01-15T10:56:33.175Z,7.07
2023-01-15T10:59:38.607Z,7.26
2023-01-15T11:02:49.076Z,7.16
2023-01-15T11:05:52.096Z,7.15
2023-01-15T11:09:12.450Z,7.23
2023-01-15T11:12:26.128Z,7.44
2023-01-15T11:15:48.006Z,7.57
2023-01-15T11:19:09.489Z,7.40
2023-01-15T11:22:17.762Z,7.28
2023-01-15T11:25:32.013Z,7.20
2023-01-15T11:28:40.392Z,7.15
2023-01-15T11:31:43.368Z,7.46
2023-01-15T11:34:57.560Z,7.56
2023-01-15T11:38:04.482Z,7.33
2023-01-15T11:41:07.825Z,7.18
2023-01-15T11:44:29.360Z,7.18
2023-01-15T11:47:52.242Z,7.78
2023-01-15T11:51:01.647Z,7.70
2023-01-15T11:54:05.902Z,8.09
2023-01-15T11:57:11.013Z,8.77
2023-01-15T12:00:21.779Z,8.89
2023-01-15T12:03:28.231Z,8.86
2023-01-15T12:06:31.767Z,8.54
2023-01-15T12:09:44.174Z,7.84
2023-01-15T12:13:15.202Z,7.93
2023-01-15T12:16:26.217Z,7.58
2023-01-15T12:19:52.410Z,7.61
2023-01-15T12:23:09.175Z,7.58
2023-01-15T12:26:34.151Z,7.41
2023-01-15T12:29:44.470Z,7.55
2023-01-15T12:32:56.370Z,7.67
2023-01-15T12:36:09.294Z,7.61
2023-01-15T12:39:46.335Z,7.76
2023-01-15T12:43:12.196Z,7.54
2023-01-15T12:46:24.307Z,7.63
2023-01-15T12:49:53.316Z,7.74
2023-01-15T12:53:14.906Z,7.83
2023-01-15T12:56:27.146Z,7.95
2023-01-15T12:59:38.071Z,8.13
2023-01-15T13:03:06.309Z,7.86
2023-01-15T13:06:09.995Z,7.98
2023-01-15T13:09:19.294Z,7.66
2023-01-15T13:12:22.309Z,7.84
2023-01-15T13:15:29.778Z,7.90
2023-01-15T13:18:45.229Z,7.70
2023-01-15T13:21:53.220Z,7.86
2023-01-15T13:25:26.435Z,7.87
2023-01-15T13:28:42.628Z,7.83
2023-01-15T13:31:59.123Z,8.00
2023-01-15T13:35:11.769Z,8.16
2023-01-15T13:38:20.031Z,7.96
2023-01-15T13:41:45.943Z,8.03
2023-01-15T13:44:52.283Z,7.95
2023-01-15T13:47:58.959Z,7.93
2023-01-15T13:51:06.256Z,7.78
2023-01-15T13:54:19.416Z,7.68
2023-01-15T13:57:24.561Z,7.73
2023-01-15T14:00:40.389Z,7.81
2023-01-15T14:04:06.494Z,7.68
2023-01-15T14:07:23.922Z,7.63
2023-01-15T14:10:38.704Z,7.69
2023-01-15T14:14:17.077Z,7.40
2023-01-15T14:17:29.225Z,7.56
2023-01-15T14:20:53.299Z,7.35
2023-01-15T14:24:50.153Z,7.41
2023-01-15T14:28:30.596Z,7.30
2023-01-15T14:31:44.030Z,7.31
2023-01-15T14:34:55.641Z,7.34
2023-01-15T14:38:03.813Z,7.33
2023-01-15T14:41:07.328Z,7.20
2023-01-15T14:44:11.548Z,7.26
2023-01-15T14:47:26.139Z,7.26
2023-01-15T14:50:34.904Z,7.23
2023-01-15T14:53:38.541Z,7.23
2023-01-15T14:56:45.376Z,7.16
2023-01-15T14:59:55.945Z,7.24
2023-01-15T15:03:01.103Z,7.11
2023-01-15T15:06:07.130Z,7.17
2023-01-15T15:09:14.073Z,7.07
2023-01-15T15:12:32.193Z,7.08
2023-01-15T15:15:39.892Z,7.01
2023-01-15T15:18:48.884Z,7.07
2023-01-15T15:21:53.292Z,6.99
2023-01-15T15:24:57.025Z,6.92
2023-01-15T15:28:10.427Z,6.99
2023-01-15T15:31:26.253Z,6.86
2023-01-15T15:34:29.808Z,6.80
2023-01-15T15:37:35.167Z,6.87
2023-01-15T15:40:40.759Z,6.88
2023-01-15T15:44:08.591Z,6.84
2023-01-15T15:48:03.259Z,6.84
2023-01-15T15:51:30.282Z,6.78
2023-01-15T15:54:34.703Z,6.82
2023-01-15T15:57:39.372Z,6.77
2023-01-15T16:00:46.300Z,6.82
2023-01-15T16:03:50.669Z,6.83
2023-01-15T16:06:55.936Z,6.76
2023-01-15T16:10:16.124Z,6.62
2023-01-15T16:13:34.172Z,6.66
2023-01-15T16:16:38.034Z,6.62
2023-01-15T16:19:42.749Z,6.49
2023-01-15T16:22:55.366Z,6.41
2023-01-15T16:26:24.610Z,6.21
2023-01-15T16:29:31.903Z,6.24
2023-01-15T16:32:37.471Z,6.08
2023-01-15T16:35:42.382Z,6.12
2023-01-15T16:38:49.317Z,6.14
2023-01-15T16:41:58.181Z,6.15
2023-01-15T16:45:07.258Z,6.08
2023-01-15T16:48:27.567Z,6.18
2023-01-15T16:51:38.694Z,6.22
2023-01-15T16:54:45.901Z,6.21
2023-01-15T16:58:15.832Z,6.19
2023-01-15T17:01:47.487Z,6.12
2023-01-15T17:04:54.354Z,6.08
2023-01-15T17:07:59.512Z,5.95
2023-01-15T17:11:04.786Z,5.78
2023-01-15T17:14:22.464Z,5.73
2023-01-15T17:17:31.573Z,5.65
2023-01-15T17:20:38.106Z,5.49
2023-01-15T17:23:44.830Z,5.54
2023-01-15T17:26:50.815Z,5.39
2023-01-15T17:29:56.667Z,5.40
2023-01-15T17:33:02.977Z,5.37
2023-01-15T17:36:09.581Z,5.43
2023-01-15T17:39:14.920Z,5.37
2023-01-15T17:42:24.997Z,5.28
2023-01-15T17:45:33.025Z,5.06
2023-01-15T17:48:36.951Z,5.23
2023-01-15T17:51:43.111Z,5.28
2023-01-15T17:55:06.160Z,5.29
2023-01-15T17:58:32.044Z,5.46
2023-01-15T18:01:58.718Z,5.51
2023-01-15T18:05:24.942Z,5.42
2023-01-15T18:08:31.893Z,5.29
2023-01-15T18:11:38.188Z,5.52
2023-01-15T18:14:42.855Z,5.36
2023-01-15T18:17:47.751Z,5.30
2023-01-15T18:20:51.382Z,5.49
2023-01-15T18:23:55.818Z,5.50
2023-01-15T18:26:59.890Z,5.50
2023-01-15T18:30:03.869Z,5.10
2023-01-15T18:33:11.368Z,5.17
2023-01-15T18:36:23.058Z,5.10
2023-01-15T18:39:27.514Z,5.13
2023-01-15T18:43:04.765Z,5.25
2023-01-15T18:46:27.443Z,5.15
2023-01-15T18:49:37.659Z,5.04
2023-01-15T18:52:50.674Z,5.14
2023-01-15T18:55:55.297Z,5.20
2023-01-15T18:58:59.891Z,5.14
2023-01-15T19:02:05.082Z,5.17
2023-01-15T19:05:12.690Z,5.21
2023-01-15T19:08:17.420Z,5.20
2023-01-15T19:11:24.884Z,5.08
2023-01-15T19:14:50.643Z,4.92
2023-01-15T19:18:13.212Z,5.11
2023-01-15T19:21:20.451Z,5.16
2023-01-15T19:24:30.903Z,5.22
2023-01-15T19:27:36.404Z,5.19
2023-01-15T19:30:42.288Z,5.19
2023-01-15T19:33:46.441Z,5.17
2023-01-15T19:36:50.651Z,5.10
2023-01-15T19:39:58.046Z,5.22
2023-01-15T19:43:21.268Z,5.23
2023-01-15T19:46:44.333Z,5.25
2023-01-15T19:50:07.341Z,5.25
2023-01-15T19:53:13.714Z,5.25
2023-01-15T19:56:19.922Z,5.01
2023-01-15T19:59:26.585Z,4.93
2023-01-15T20:02:30.961Z,4.94
2023-01-15T20:05:37.856Z,5.03
2023-01-15T20:08:41.854Z,4.73
2023-01-15T20:12:05.672Z,4.82
2023-01-15T20:15:10.666Z,4.59
2023-01-15T20:18:17.090Z,4.75
2023-01-15T20:21:21.741Z,4.80
2023-01-15T20:24:26.625Z,4.86
2023-01-15T20:27:37.320Z,4.88
2023-01-15T20:30:42.072Z,4.85
2023-01-15T20:33:47.435Z,4.86
2023-01-15T20:36:52.078Z,4.77
2023-01-15T20:39:56.506Z,4.72
2023-01-15T20:43:19.665Z,4.70
2023-01-15T20:46:33.937Z,4.71
2023-01-15T20:49:38.804Z,4.72
2023-01-15T20:52:52.568Z,4.78
2023-01-15T20:55:57.803Z,4.72
2023-01-15T20:59:01.743Z,4.75
2023-01-15T21:02:08.929Z,4.79
2023-01-15T21:05:12.794Z,4.82
2023-01-15T21:08:17.581Z,4.80
2023-01-15T21:11:25.122Z,4.84
2023-01-15T21:14:38.812Z,4.72
2023-01-15T21:17:42.781Z,4.79
2023-01-15T21:20:47.424Z,4.85
2023-01-15T21:23:50.922Z,4.83
2023-01-15T21:26:56.245Z,4.79
2023-01-15T21:29:59.594Z,4.84
2023-01-15T21:33:05.132Z,4.80
2023-01-15T21:36:11.270Z,4.89
2023-01-15T21:39:16.051Z,4.93
2023-01-15T21:42:39.659Z,4.97
2023-01-15T21:45:43.027Z,4.97
2023-01-15T21:48:47.377Z,4.95
2023-01-15T21:51:50.625Z,4.98
2023-01-15T21:54:54.140Z,5.01
2023-01-15T21:57:58.684Z,5.00
2023-01-15T22:01:01.685Z,4.90
2023-01-15T22:04:06.194Z,4.92
2023-01-15T22:07:09.599Z,4.94
2023-01-15T22:10:12.848Z,4.96
2023-01-15T22:13:15.733Z,4.96
2023-01-15T22:16:19.143Z,4.90
2023-01-15T22:19:24.042Z,4.98
2023-01-15T22:22:33.017Z,5.02
2023-01-15T22:25:36.184Z,5.01
2023-01-15T22:28:39.380Z,5.03
2023-01-15T22:31:42.457Z,5.00
2023-01-15T22:34:47.362Z,5.00
2023-01-15T22:37:50.291Z,5.04
2023-01-15T22:40:53.522Z,4.89
2023-01-15T22:43:56.484Z,5.01
2023-01-15T22:46:59.980Z,5.04
2023-01-15T22:50:04.997Z,5.05
2023-01-15T22:53:09.566Z,5.05
2023-01-15T22:56:12.369Z,5.07
2023-01-15T22:59:16.774Z,4.90
2023-01-15T23:02:40.291Z,4.87
2023-01-15T23:05:43.618Z,4.92
2023-01-15T23:08:46.549Z,4.68
2023-01-15T23:11:51.600Z,4.81
2023-01-15T23:14:54.855Z,4.65
2023-01-15T23:17:58.113Z,4.62
2023-01-15T23:21:08.367Z,4.66
2023-01-15T23:24:12.355Z,4.58
2023-01-15T23:27:15.395Z,4.72
2023-01-15T23:30:18.792Z,4.68
2023-01-15T23:33:22.935Z,4.73
2023-01-15T23:36:27.947Z,4.75
2023-01-15T23:39:31.039Z,4.80
2023-01-15T23:42:54.002Z,4.77
2023-01-15T23:46:15.751Z,4.82
2023-01-15T23:49:19.660Z,4.83
2023-01-15T23:52:23.774Z,4.79
2023-01-15T23:55:28.745Z,4.77
2023-01-15T23:58:32.234Z,4.76
